Portada
METAR-TAF:

METAR-TAF

Aeroports :

Ford Airport

Iron Mountain-Kingsford, Michigan, Estats Units d'Amèrica

latitud: 45-48-51N, longitud: 088-06-32W, altitud: 360 m

Observació

L'informe es va fer fa 1 hora i 7 minuts, a les 05:54 UTC
Vent 12 kt del Nord/Nord-Oest
Temperatura 2°C
Humitat 80%
Pressió 1010 hPa
Visibilitat: 16.1 km
Escasses núvols a una alçada de 1600 ft
Cel cobert a una alçada de 2400 ft

METAR: KIMT 300554Z AUTO 33012KT 10SM FEW016 OVC024 02/M01 A2982 RMK AO2 SLP108 60000 T00171011 10022 20017 400500017 51029

Hora: 03:01 (07:01 UTC)


TAF: manca

Observacions i pronòstics meteorològics de més de 4000 aeroports (METAR i TAF).

Les estacions disponibles són els punts grocs i vermells al mapa.

Posi el ratolí al punt desitjat per veure el nom de l'estació.

Feu clic per veure les observacions i els pronòstics meteorològics.

Per canviar el mapa: feu clic els botons verds amb una creu de color negre per apropar; al botó verd amb un guió per allunyar la imatge; o en les fletxes verdes per a mapes adjacents.


METAR-TAF: